createdAt,value
2022-10-17T00:00:15.016Z,102165.94
2022-10-17T00:05:17.077Z,102174.84
2022-10-17T00:10:19.537Z,102166.78
2022-10-17T00:15:22.120Z,102158.28
2022-10-17T00:20:24.381Z,102163.25
2022-10-17T00:25:26.440Z,102164.97
2022-10-17T00:30:28.410Z,102166.78
2022-10-17T00:35:30.473Z,102168.63
2022-10-17T00:40:32.471Z,102166.78
2022-10-17T00:45:34.568Z,102166.06
2022-10-17T00:50:38.201Z,102168.75
2022-10-17T00:55:51.853Z,102181.19
2022-10-17T01:00:54.910Z,102179.34
2022-10-17T01:05:57.396Z,102193.75
2022-10-17T01:11:43.966Z,102211.56
2022-10-17T01:16:54.648Z,102222.44
2022-10-17T01:22:11.732Z,102220.59
2022-10-17T01:27:41.617Z,102223.28
2022-10-17T01:32:49.907Z,102226.81
2022-10-17T01:38:14.971Z,102232.31
2022-10-17T01:43:39.386Z,102233.16
2022-10-17T01:48:45.441Z,102237.69
2022-10-17T01:53:54.565Z,102241.22
2022-10-17T01:59:21.606Z,102227.78
2022-10-17T02:04:24.122Z,102219.03
2022-10-17T02:09:27.429Z,102227.78
2022-10-17T02:15:10.087Z,102214.38
2022-10-17T02:20:31.288Z,102206.47
2022-10-17T02:25:38.619Z,102212.69
2022-10-17T02:30:51.525Z,102206.31
2022-10-17T02:35:58.060Z,102208.16
2022-10-17T02:41:01.269Z,102195.75
2022-10-17T02:46:06.127Z,102183.44
2022-10-17T02:51:12.424Z,102190.38
2022-10-17T02:56:18.302Z,102178.63
2022-10-17T03:01:22.122Z,102187.53
2022-10-17T03:06:24.126Z,102189.38
2022-10-17T03:11:26.168Z,102189.38
2022-10-17T03:16:28.429Z,102182.31
2022-10-17T03:21:31.102Z,102190.22
2022-10-17T03:26:33.410Z,102189.53
2022-10-17T03:31:36.513Z,102189.38
2022-10-17T03:36:40.922Z,102185.84
2022-10-17T03:41:43.047Z,102192.22
2022-10-17T03:46:45.233Z,102185.97
2022-10-17T03:51:47.766Z,102189.53
2022-10-17T03:56:52.548Z,102185.00
2022-10-17T04:01:55.306Z,102195.75
2022-10-17T04:06:57.813Z,102195.75
2022-10-17T04:12:00.751Z,102205.63
2022-10-17T04:17:02.949Z,102211.84
2022-10-17T04:22:08.628Z,102218.19
2022-10-17T04:27:13.367Z,102225.25
2022-10-17T04:32:19.521Z,102220.75
2022-10-17T04:37:30.786Z,102233.31
2022-10-17T04:42:34.898Z,102230.63
2022-10-17T04:47:37.145Z,102229.78
2022-10-17T04:52:39.243Z,102219.91
2022-10-17T04:57:42.958Z,102223.56
2022-10-17T05:02:52.041Z,102229.78
2022-10-17T05:07:55.069Z,102232.47
2022-10-17T05:13:00.511Z,102236.13
2022-10-17T05:18:06.920Z,102221.00
2022-10-17T05:23:09.601Z,102231.59
2022-10-17T05:28:15.492Z,102224.94
2022-10-17T05:33:18.419Z,102247.59
2022-10-17T05:38:20.813Z,102253.09
2022-10-17T05:43:24.865Z,102255.75
2022-10-17T05:48:27.693Z,102253.94
2022-10-17T05:53:32.280Z,102245.56
2022-10-17T05:58:50.632Z,102251.38
2022-10-17T06:04:14.062Z,102251.38
2022-10-17T06:09:16.288Z,102249.53
2022-10-17T06:14:22.394Z,102254.91
2022-10-17T06:19:28.389Z,102275.53
2022-10-17T06:24:30.552Z,102281.75
2022-10-17T06:29:33.359Z,102279.06
2022-10-17T06:34:35.897Z,102291.50
2022-10-17T06:39:39.108Z,102291.63
2022-10-17T06:44:46.261Z,102304.94
2022-10-17T06:49:54.011Z,102316.63
2022-10-17T06:55:10.315Z,102322.75
2022-10-17T07:00:30.832Z,102335.44
2022-10-17T07:05:33.027Z,102338.09
2022-10-17T07:10:38.773Z,102346.16
2022-10-17T07:15:43.398Z,102354.09
2022-10-17T07:20:53.886Z,102354.22
2022-10-17T07:26:06.996Z,102360.44
2022-10-17T07:31:12.739Z,102373.00
2022-10-17T07:36:15.541Z,102376.53
2022-10-17T07:41:21.712Z,102380.19
2022-10-17T07:46:25.553Z,102389.09
2022-10-17T07:51:28.181Z,102395.22
2022-10-17T07:56:30.237Z,102400.69
2022-10-17T08:01:32.213Z,102410.56
2022-10-17T08:06:34.301Z,102420.34
2022-10-17T08:11:37.339Z,102417.66
2022-10-17T08:16:40.669Z,102444.50
2022-10-17T08:21:44.949Z,102454.38
2022-10-17T08:26:49.592Z,102463.13
2022-10-17T08:31:58.565Z,102477.56
2022-10-17T08:37:03.668Z,102477.56
2022-10-17T08:42:08.480Z,102476.56
2022-10-17T08:47:14.922Z,102473.88
2022-10-17T08:52:35.322Z,102475.72
2022-10-17T08:57:37.302Z,102458.63
2022-10-17T09:02:58.936Z,102455.94
2022-10-17T09:08:09.301Z,102449.72
2022-10-17T09:13:28.767Z,102462.16
2022-10-17T09:18:59.801Z,102471.06
2022-10-17T09:24:09.697Z,102471.06
2022-10-17T09:29:21.708Z,102489.84
2022-10-17T09:34:27.626Z,102488.03
2022-10-17T09:39:32.285Z,102488.03
2022-10-17T09:44:40.515Z,102483.50
2022-10-17T09:49:44.972Z,102471.81
2022-10-17T09:54:53.640Z,102445.59
2022-10-17T10:00:01.817Z,102419.94
2022-10-17T10:05:17.232Z,102379.81
2022-10-17T10:10:27.916Z,102382.50
2022-10-17T10:15:37.959Z,102409.09
2022-10-17T10:20:40.806Z,102430.56
2022-10-17T10:25:53.337Z,102472.66
2022-10-17T10:30:57.744Z,102472.66
2022-10-17T10:36:03.500Z,102486.94
2022-10-17T10:41:08.457Z,102494.84
2022-10-17T10:46:23.101Z,102482.44
2022-10-17T10:51:40.218Z,102479.75
2022-10-17T10:56:49.857Z,102491.19
2022-10-17T11:01:54.453Z,102505.56
2022-10-17T11:07:03.717Z,102520.72
2022-10-17T11:12:13.048Z,102517.16
2022-10-17T11:17:18.807Z,102493.28
2022-10-17T11:22:52.965Z,102504.59
2022-10-17T11:27:55.053Z,102503.75
2022-10-17T11:33:03.824Z,102502.78
2022-10-17T11:38:22.001Z,102519.84
2022-10-17T11:43:32.844Z,102529.63
2022-10-17T11:48:41.692Z,102523.41
2022-10-17T11:53:55.602Z,102528.75
2022-10-17T11:59:27.768Z,102526.09
2022-10-17T12:04:35.687Z,102529.63
2022-10-17T12:09:55.294Z,102524.25
2022-10-17T12:15:24.660Z,102512.81
2022-10-17T12:20:32.177Z,102513.50
2022-10-17T12:30:56.582Z,102497.41
2022-10-17T12:36:17.372Z,102478.50
2022-10-17T12:41:41.055Z,102483.88
2022-10-17T12:46:52.863Z,102474.84
2022-10-17T12:52:25.842Z,102483.75
2022-10-17T12:57:34.911Z,102484.72
2022-10-17T13:02:36.956Z,102480.09
2022-10-17T13:07:42.722Z,102473.88
2022-10-17T13:12:44.933Z,102470.31
2022-10-17T13:17:56.925Z,102467.50
2022-10-17T13:22:59.598Z,102461.31
2022-10-17T13:28:08.463Z,102468.34
2022-10-17T13:33:28.752Z,102454.06
2022-10-17T13:38:34.793Z,102450.41
2022-10-17T13:43:39.120Z,102448.69
2022-10-17T13:48:41.111Z,102447.72
2022-10-17T13:53:44.681Z,102432.50
2022-10-17T13:58:57.276Z,102449.47
2022-10-17T14:04:20.076Z,102466.44
2022-10-17T14:09:28.172Z,102481.69
2022-10-17T14:14:46.199Z,102478.75
2022-10-17T14:20:26.175Z,102488.75
2022-10-17T14:25:40.741Z,102490.69
2022-10-17T14:30:57.459Z,102496.94
2022-10-17T14:36:02.191Z,102491.44
2022-10-17T14:41:41.411Z,102496.81
2022-10-17T14:46:47.315Z,102502.06
2022-10-17T14:52:18.309Z,102498.66
2022-10-17T14:57:27.977Z,102508.28
2022-10-17T15:02:30.953Z,102495.47
2022-10-17T15:07:33.179Z,102511.09
2022-10-17T15:12:35.240Z,102506.47
2022-10-17T15:17:37.261Z,102488.97
2022-10-17T15:22:39.339Z,102488.50
2022-10-17T15:27:41.384Z,102481.44
2022-10-17T15:32:43.359Z,102467.16
2022-10-17T15:37:46.966Z,102491.19
2022-10-17T15:42:49.263Z,102499.25
2022-10-17T15:47:54.487Z,102522.44
2022-10-17T15:52:56.415Z,102525.13
2022-10-17T15:57:58.362Z,102519.75
2022-10-17T16:03:00.803Z,102521.56
2022-10-17T16:08:02.773Z,102518.88
2022-10-17T16:13:04.695Z,102505.47
2022-10-17T16:18:07.385Z,102532.31
2022-10-17T16:23:13.079Z,102532.31
2022-10-17T16:28:15.018Z,102539.41
2022-10-17T16:33:17.139Z,102514.84
2022-10-17T16:38:19.157Z,102518.88
2022-10-17T16:43:21.076Z,102528.78
2022-10-17T16:48:26.151Z,102526.94
2022-10-17T16:53:31.542Z,102528.66
2022-10-17T16:58:33.578Z,102522.44
2022-10-17T17:03:40.225Z,102531.34
2022-10-17T17:08:43.171Z,102532.19
2022-10-17T17:13:45.155Z,102529.63
2022-10-17T17:18:49.198Z,102513.78
2022-10-17T17:23:51.958Z,102517.91
2022-10-17T17:28:54.894Z,102514.38
2022-10-17T17:33:57.336Z,102518.66
2022-10-17T17:39:00.558Z,102517.91
2022-10-17T17:44:04.101Z,102520.59
2022-10-17T17:49:06.079Z,102534.03
2022-10-17T17:54:11.615Z,102542.94
2022-10-17T17:59:13.816Z,102551.97
2022-10-17T18:04:18.797Z,102561.72
2022-10-17T18:09:21.533Z,102570.75
2022-10-17T18:14:26.589Z,102582.25
2022-10-17T18:19:28.740Z,102591.25
2022-10-17T18:24:30.775Z,102607.38
2022-10-17T18:29:33.512Z,102617.16
2022-10-17T18:34:35.532Z,102609.09
2022-10-17T18:39:37.639Z,102609.09
2022-10-17T18:44:39.557Z,102600.19
2022-10-17T18:49:41.589Z,102608.22
2022-10-17T18:54:43.572Z,102616.28
2022-10-17T18:59:45.599Z,102612.63
2022-10-17T19:09:54.384Z,102602.00
2022-10-17T19:14:57.513Z,102609.09
2022-10-17T19:19:59.904Z,102602.00
2022-10-17T19:25:01.945Z,102610.06
2022-10-17T19:30:04.810Z,102604.69
2022-10-17T19:35:07.111Z,102610.06
2022-10-17T19:40:09.613Z,102614.47
2022-10-17T19:45:11.601Z,102606.41
2022-10-17T19:50:13.562Z,102591.16
2022-10-17T19:55:15.531Z,102596.63
2022-10-17T20:00:17.508Z,102610.91
2022-10-17T20:05:21.657Z,102609.94
2022-10-17T20:10:25.808Z,102621.66
2022-10-17T20:15:27.776Z,102637.78
2022-10-17T20:20:29.933Z,102631.53
2022-10-17T20:25:33.517Z,102637.78
2022-10-17T20:30:35.503Z,102644.00
2022-10-17T20:35:42.150Z,102642.28
2022-10-17T20:40:44.523Z,102636.06
2022-10-17T20:45:51.306Z,102632.50
2022-10-17T20:50:54.370Z,102622.63
2022-10-17T20:56:08.332Z,102635.19
2022-10-17T21:01:11.057Z,102629.81
2022-10-17T21:06:13.312Z,102627.13
2022-10-17T21:11:17.700Z,102628.00
2022-10-17T21:16:19.936Z,102632.50
2022-10-17T21:21:28.196Z,102628.13
2022-10-17T21:26:33.073Z,102641.44
2022-10-17T21:31:40.122Z,102647.75
2022-10-17T21:36:42.220Z,102654.00
2022-10-17T21:41:44.932Z,102661.19
2022-10-17T21:46:47.660Z,102665.59
2022-10-17T21:51:50.668Z,102664.63
2022-10-17T21:56:52.790Z,102661.19
2022-10-17T22:01:54.997Z,102651.75
2022-10-17T22:06:57.176Z,102668.28
2022-10-17T22:11:59.184Z,102664.72
2022-10-17T22:17:01.740Z,102672.78
2022-10-17T22:22:03.721Z,102673.66
2022-10-17T22:27:06.332Z,102670.09
2022-10-17T22:32:08.352Z,102659.34
2022-10-17T22:37:10.634Z,102656.69
2022-10-17T22:42:12.924Z,102658.50
2022-10-17T22:47:15.028Z,102653.13
2022-10-17T22:52:17.059Z,102638.03
2022-10-17T22:57:18.981Z,102640.72
2022-10-17T23:02:20.909Z,102628.00
2022-10-17T23:07:22.869Z,102622.75
2022-10-17T23:12:25.105Z,102626.44
2022-10-17T23:17:27.102Z,102640.72
2022-10-17T23:22:29.276Z,102663.88
2022-10-17T23:27:31.446Z,102671.06
2022-10-17T23:32:33.592Z,102676.44
2022-10-17T23:37:36.321Z,102671.06
2022-10-17T23:42:38.349Z,102668.28
2022-10-17T23:47:40.298Z,102668.28
2022-10-17T23:52:42.194Z,102661.19
2022-10-17T23:57:44.092Z,102650.59
